createdAt,value
2022-08-12T00:02:04.309Z,18.50
2022-08-12T00:05:59.668Z,18.50
2022-08-12T00:10:05.770Z,18.50
2022-08-12T00:14:07.485Z,18.30
2022-08-12T00:18:08.309Z,18.40
2022-08-12T00:22:08.604Z,18.30
2022-08-12T00:26:22.255Z,18.40
2022-08-12T00:30:27.188Z,18.50
2022-08-12T00:34:32.387Z,18.40
2022-08-12T00:38:32.901Z,18.30
2022-08-12T00:42:15.106Z,18.20
2022-08-12T00:46:17.091Z,18.20
2022-08-12T00:50:00.144Z,18.10
2022-08-12T00:53:42.621Z,17.90
2022-08-12T00:57:27.337Z,17.90
2022-08-12T01:01:11.645Z,17.90
2022-08-12T01:05:15.993Z,17.90
2022-08-12T01:09:16.269Z,17.90
2022-08-12T01:13:18.574Z,17.80
2022-08-12T01:17:03.616Z,17.80
2022-08-12T01:20:54.009Z,17.70
2022-08-12T01:24:53.447Z,17.60
2022-08-12T01:28:37.038Z,17.50
2022-08-12T01:32:22.211Z,17.50
2022-08-12T01:36:10.583Z,17.40
2022-08-12T01:40:36.991Z,17.40
2022-08-12T01:44:02.225Z,17.40
2022-08-12T01:48:03.933Z,17.40
2022-08-12T01:52:21.870Z,17.40
2022-08-12T01:56:03.184Z,17.40
2022-08-12T01:59:53.380Z,17.30
2022-08-12T02:04:07.581Z,17.20
2022-08-12T02:08:19.404Z,17.20
2022-08-12T02:12:37.522Z,17.10
2022-08-12T02:16:32.917Z,17.00
2022-08-12T02:20:52.027Z,17.00
2022-08-12T02:24:38.356Z,16.90
2022-08-12T02:28:22.648Z,16.90
2022-08-12T02:32:05.879Z,16.80
2022-08-12T02:35:51.461Z,16.70
2022-08-12T02:39:35.223Z,16.70
2022-08-12T02:43:23.226Z,16.60
2022-08-12T02:47:07.658Z,16.50
2022-08-12T02:51:12.822Z,16.50
2022-08-12T02:55:04.489Z,16.40
2022-08-12T02:58:48.933Z,16.50
2022-08-12T03:02:34.589Z,16.40
2022-08-12T03:06:22.332Z,16.40
2022-08-12T03:10:09.498Z,16.30
2022-08-12T03:14:02.377Z,16.40
2022-08-12T03:18:24.977Z,16.30
2022-08-12T03:22:09.343Z,16.20
2022-08-12T03:25:54.043Z,16.10
2022-08-12T03:29:49.786Z,16.10
2022-08-12T03:33:37.285Z,16.10
2022-08-12T03:37:21.782Z,16.10
2022-08-12T03:41:26.462Z,16.10
2022-08-12T03:45:42.072Z,16.20
2022-08-12T03:49:54.251Z,16.20
2022-08-12T03:53:55.654Z,16.20
2022-08-12T03:57:55.697Z,16.20
2022-08-12T04:01:41.297Z,16.10
2022-08-12T04:05:24.134Z,16.20
2022-08-12T04:09:27.380Z,16.20
2022-08-12T04:13:19.690Z,16.10
2022-08-12T04:17:04.335Z,16.10
2022-08-12T04:20:49.912Z,16.10
2022-08-12T04:24:36.413Z,16.00
2022-08-12T04:28:27.808Z,16.00
2022-08-12T04:32:12.198Z,16.00
2022-08-12T04:35:56.170Z,16.00
2022-08-12T04:39:40.727Z,16.00
2022-08-12T04:44:00.627Z,16.00
2022-08-12T04:47:29.763Z,16.10
2022-08-12T04:51:12.433Z,16.10
2022-08-12T04:54:55.576Z,16.20
2022-08-12T04:58:38.788Z,16.30
2022-08-12T05:02:22.852Z,16.30
2022-08-12T05:06:08.066Z,16.40
2022-08-12T05:09:58.873Z,16.50
2022-08-12T05:13:44.735Z,16.50
2022-08-12T05:17:28.306Z,16.60
2022-08-12T05:21:12.479Z,16.60
2022-08-12T05:24:55.424Z,16.70
2022-08-12T05:28:38.568Z,16.80
2022-08-12T05:32:21.463Z,17.00
2022-08-12T05:36:04.788Z,17.10
2022-08-12T05:39:48.913Z,17.30
2022-08-12T05:43:31.381Z,17.40
2022-08-12T05:47:14.633Z,17.40
2022-08-12T05:50:57.785Z,17.60
2022-08-12T05:54:57.201Z,17.60
2022-08-12T05:58:41.978Z,17.60
2022-08-12T06:02:26.239Z,17.50
2022-08-12T06:06:08.817Z,17.50
2022-08-12T06:09:51.516Z,17.60
2022-08-12T06:13:53.213Z,17.70
2022-08-12T06:17:38.899Z,17.80
2022-08-12T06:21:23.504Z,17.90
2022-08-12T06:25:07.143Z,18.00
2022-08-12T06:28:52.000Z,18.10
2022-08-12T06:32:35.428Z,18.30
2022-08-12T06:36:22.597Z,18.40
2022-08-12T06:40:06.557Z,18.60
2022-08-12T06:44:04.889Z,18.80
2022-08-12T06:47:50.393Z,18.90
2022-08-12T06:51:34.712Z,19.00
2022-08-12T06:55:20.679Z,19.00
2022-08-12T06:59:03.507Z,19.10
2022-08-12T07:02:46.688Z,19.30
2022-08-12T07:06:30.269Z,19.40
2022-08-12T07:10:14.136Z,19.70
2022-08-12T07:14:12.630Z,19.90
2022-08-12T07:18:00.558Z,19.90
2022-08-12T07:21:59.580Z,20.10
2022-08-12T07:25:46.608Z,20.20
2022-08-12T07:30:00.076Z,20.20
2022-08-12T07:33:33.023Z,20.40
2022-08-12T07:37:15.815Z,20.60
2022-08-12T07:41:03.913Z,20.80
2022-08-12T07:44:47.179Z,20.90
2022-08-12T07:48:42.057Z,20.90
2022-08-12T07:52:25.389Z,21.30
2022-08-12T07:56:10.831Z,21.40
2022-08-12T07:59:55.782Z,21.60
2022-08-12T08:03:59.460Z,21.80
2022-08-12T08:07:42.510Z,22.00
2022-08-12T08:11:44.801Z,22.20
2022-08-12T08:15:58.927Z,22.30
2022-08-12T08:19:33.584Z,22.40
2022-08-12T08:23:56.256Z,22.60
2022-08-12T08:27:47.041Z,22.60
2022-08-12T08:31:29.960Z,22.60
2022-08-12T08:35:13.189Z,22.70
2022-08-12T08:38:58.462Z,22.70
2022-08-12T08:42:40.642Z,22.80
2022-08-12T08:46:25.570Z,22.80
2022-08-12T08:50:10.781Z,22.90
2022-08-12T08:53:54.273Z,22.70
2022-08-12T08:57:43.683Z,23.10
2022-08-12T09:06:02.612Z,23.20
2022-08-12T09:10:02.638Z,23.20
2022-08-12T09:14:10.671Z,23.30
2022-08-12T09:17:54.471Z,23.40
2022-08-12T09:21:54.735Z,23.50
2022-08-12T09:25:38.786Z,23.60
2022-08-12T09:30:10.971Z,23.80
2022-08-12T09:34:29.835Z,23.80
2022-08-12T09:37:55.235Z,23.90
2022-08-12T09:42:33.453Z,23.60
2022-08-12T09:46:07.124Z,23.80
2022-08-12T09:49:57.964Z,23.70
2022-08-12T09:53:41.768Z,23.80
2022-08-12T09:58:07.419Z,23.80
2022-08-12T10:01:35.438Z,23.90
2022-08-12T10:06:20.362Z,24.00
2022-08-12T10:09:58.735Z,24.10
2022-08-12T10:13:42.930Z,24.30
2022-08-12T10:17:25.599Z,24.60
2022-08-12T10:21:11.041Z,24.50
2022-08-12T10:25:17.974Z,24.50
2022-08-12T10:30:38.641Z,24.40
2022-08-12T10:33:23.056Z,24.40
2022-08-12T10:37:22.987Z,24.40
2022-08-12T10:41:57.110Z,24.60
2022-08-12T10:45:38.662Z,24.90
2022-08-12T10:50:02.463Z,25.00
2022-08-12T10:53:45.003Z,25.30
2022-08-12T10:58:15.701Z,25.10
2022-08-12T11:04:17.825Z,25.20
2022-08-12T11:07:05.006Z,25.10
2022-08-12T11:09:59.803Z,25.10
2022-08-12T11:13:48.618Z,25.10
2022-08-12T11:17:43.653Z,25.20
2022-08-12T11:21:56.294Z,25.00
2022-08-12T11:25:55.737Z,25.40
2022-08-12T11:30:05.288Z,25.10
2022-08-12T11:34:06.236Z,25.40
2022-08-12T11:37:58.337Z,25.60
2022-08-12T11:41:43.605Z,25.10
2022-08-12T11:45:29.570Z,25.30
2022-08-12T11:49:31.355Z,25.80
2022-08-12T11:53:59.156Z,25.90
2022-08-12T11:58:17.227Z,26.00
2022-08-12T12:02:02.557Z,26.00
2022-08-12T12:05:28.426Z,26.00
2022-08-12T12:09:11.172Z,26.20
2022-08-12T12:12:55.302Z,26.40
2022-08-12T12:16:40.008Z,26.50
2022-08-12T12:20:27.718Z,26.40
2022-08-12T12:24:13.148Z,26.60
2022-08-12T12:28:04.972Z,26.70
2022-08-12T12:32:09.895Z,26.70
2022-08-12T12:36:18.497Z,26.80
2022-08-12T12:39:55.341Z,26.90
2022-08-12T12:43:43.276Z,26.70
2022-08-12T12:47:29.050Z,26.90
2022-08-12T12:51:49.208Z,26.80
2022-08-12T12:55:22.314Z,27.30
2022-08-12T12:59:06.139Z,27.70
2022-08-12T13:02:53.912Z,27.40
2022-08-12T13:06:36.840Z,27.00
2022-08-12T13:10:23.909Z,26.80
2022-08-12T13:14:12.693Z,26.70
2022-08-12T13:18:02.428Z,27.40
2022-08-12T13:22:01.120Z,27.70
2022-08-12T13:25:43.631Z,28.10
2022-08-12T13:29:30.825Z,28.10
2022-08-12T13:33:17.695Z,28.10
2022-08-12T13:37:00.487Z,27.90
2022-08-12T13:40:46.289Z,26.80
2022-08-12T13:44:30.252Z,26.40
2022-08-12T13:48:12.963Z,26.30
2022-08-12T13:52:02.761Z,26.10
2022-08-12T13:55:49.774Z,26.90
2022-08-12T13:59:48.223Z,27.30
2022-08-12T14:03:50.984Z,27.10
2022-08-12T14:07:48.865Z,27.50
2022-08-12T14:11:32.470Z,28.10
2022-08-12T14:15:16.649Z,27.80
2022-08-12T14:18:59.914Z,28.10
2022-08-12T14:22:49.542Z,28.00
2022-08-12T14:26:34.279Z,27.50
2022-08-12T14:30:28.764Z,27.10
2022-08-12T14:34:12.262Z,27.50
2022-08-12T14:37:59.089Z,27.60
2022-08-12T14:41:48.633Z,27.40
2022-08-12T14:45:48.809Z,27.50
2022-08-12T14:50:33.995Z,27.50
2022-08-12T14:57:57.296Z,27.60
2022-08-12T15:01:42.345Z,27.70
2022-08-12T15:06:05.219Z,27.80
2022-08-12T15:09:28.732Z,27.70
2022-08-12T15:13:12.498Z,28.20
2022-08-12T15:17:00.485Z,28.20
2022-08-12T15:20:43.715Z,27.10
2022-08-12T15:24:26.631Z,26.50
2022-08-12T15:28:10.759Z,26.70
2022-08-12T15:31:59.486Z,26.30
2022-08-12T15:35:51.925Z,26.60
2022-08-12T15:39:36.224Z,26.90
2022-08-12T15:43:51.976Z,27.30
2022-08-12T15:47:26.671Z,27.50
2022-08-12T15:51:11.184Z,27.60
2022-08-12T15:55:06.593Z,27.40
2022-08-12T15:58:54.444Z,26.60
2022-08-12T16:02:49.486Z,26.30
2022-08-12T16:10:38.238Z,25.90
2022-08-12T16:14:22.391Z,25.60
2022-08-12T16:18:15.320Z,25.90
2022-08-12T16:22:04.164Z,26.00
2022-08-12T16:26:05.581Z,26.00
2022-08-12T16:29:57.197Z,26.20
2022-08-12T16:33:58.744Z,26.90
2022-08-12T16:38:25.014Z,26.70
2022-08-12T16:41:47.986Z,26.30
2022-08-12T16:46:05.501Z,26.80
2022-08-12T16:49:43.504Z,27.00
2022-08-12T16:53:30.599Z,27.10
2022-08-12T16:57:34.624Z,27.10
2022-08-12T17:01:25.922Z,26.70
2022-08-12T17:05:12.610Z,26.50
2022-08-12T17:09:02.383Z,26.40
2022-08-12T17:12:45.604Z,26.60
2022-08-12T17:16:30.325Z,26.60
2022-08-12T17:20:35.156Z,26.60
2022-08-12T17:24:22.489Z,26.50
2022-08-12T17:28:16.482Z,26.50
2022-08-12T17:32:02.647Z,26.00
2022-08-12T17:35:50.086Z,26.10
2022-08-12T17:40:06.577Z,26.30
2022-08-12T17:43:56.180Z,26.60
2022-08-12T17:47:40.091Z,27.00
2022-08-12T17:51:25.453Z,27.50
2022-08-12T17:55:24.585Z,27.10
2022-08-12T17:59:14.842Z,26.70
2022-08-12T18:03:57.730Z,26.20
2022-08-12T18:07:21.554Z,25.60
2022-08-12T18:12:05.726Z,25.40
2022-08-12T18:16:03.933Z,25.00
2022-08-12T18:20:06.429Z,24.70
2022-08-12T18:23:53.661Z,24.40
2022-08-12T18:27:46.830Z,24.20
2022-08-12T18:31:44.737Z,24.00
2022-08-12T18:35:47.063Z,23.70
2022-08-12T18:39:56.211Z,23.50
2022-08-12T18:43:58.746Z,23.30
2022-08-12T18:47:50.170Z,23.10
2022-08-12T18:51:48.802Z,22.90
2022-08-12T18:55:37.436Z,22.70
2022-08-12T19:00:00.936Z,22.50
2022-08-12T19:03:39.608Z,22.30
2022-08-12T19:07:24.661Z,22.20
2022-08-12T19:11:27.933Z,22.10
2022-08-12T19:15:12.128Z,21.90
2022-08-12T19:18:55.115Z,21.70
2022-08-12T19:22:37.652Z,21.60
2022-08-12T19:26:26.124Z,21.60
2022-08-12T19:30:33.414Z,21.60
2022-08-12T19:34:47.143Z,21.50
2022-08-12T19:38:27.868Z,21.40
2022-08-12T19:42:15.734Z,21.40
2022-08-12T19:46:01.654Z,21.40
2022-08-12T19:49:48.493Z,21.20
2022-08-12T19:53:56.896Z,21.10
2022-08-12T19:57:35.295Z,21.00
2022-08-12T20:01:28.162Z,21.00
2022-08-12T20:06:03.205Z,21.10
2022-08-12T20:09:19.766Z,21.00
2022-08-12T20:13:18.476Z,20.90
2022-08-12T20:17:08.433Z,20.90
2022-08-12T20:20:52.007Z,20.80
2022-08-12T20:24:37.619Z,20.70
2022-08-12T20:28:21.568Z,20.70
2022-08-12T20:32:05.939Z,20.50
2022-08-12T20:36:12.890Z,20.40
2022-08-12T20:40:04.304Z,20.40
2022-08-12T20:43:54.855Z,20.30
2022-08-12T20:47:46.676Z,20.20
2022-08-12T20:51:50.937Z,20.20
2022-08-12T20:55:42.990Z,20.20
2022-08-12T20:59:31.762Z,20.10
2022-08-12T21:03:32.452Z,20.00
2022-08-12T21:07:16.863Z,19.90
2022-08-12T21:11:03.622Z,19.90
2022-08-12T21:14:53.504Z,19.80
2022-08-12T21:18:37.484Z,19.60
2022-08-12T21:22:24.467Z,19.60
2022-08-12T21:26:11.128Z,19.50
2022-08-12T21:29:56.601Z,19.60
2022-08-12T21:33:45.881Z,19.50
2022-08-12T21:37:53.279Z,19.40
2022-08-12T21:41:37.905Z,19.30
2022-08-12T21:45:46.868Z,19.30
2022-08-12T21:49:53.939Z,19.20
2022-08-12T21:53:31.720Z,19.10
2022-08-12T21:57:36.471Z,19.10
2022-08-12T22:01:34.402Z,19.00
2022-08-12T22:05:44.704Z,18.90
2022-08-12T22:09:43.139Z,18.80
2022-08-12T22:14:04.101Z,18.70
2022-08-12T22:17:49.971Z,18.70
2022-08-12T22:21:37.919Z,18.60
2022-08-12T22:25:32.611Z,18.50
2022-08-12T22:29:32.988Z,18.40
2022-08-12T22:33:19.273Z,18.40
2022-08-12T22:52:27.189Z,17.50
2022-08-12T22:56:14.451Z,17.40
2022-08-12T22:59:57.537Z,17.40
2022-08-12T23:03:49.580Z,17.40
2022-08-12T23:07:59.654Z,17.50
2022-08-12T23:11:43.093Z,17.50
2022-08-12T23:15:25.875Z,17.50
2022-08-12T23:19:17.886Z,17.60
2022-08-12T23:23:05.618Z,17.60
2022-08-12T23:27:09.938Z,17.60
2022-08-12T23:30:52.408Z,17.60
2022-08-12T23:34:36.044Z,17.60
2022-08-12T23:38:31.154Z,17.60
2022-08-12T23:42:17.866Z,17.60
2022-08-12T23:46:08.687Z,17.50
2022-08-12T23:49:58.920Z,17.50
2022-08-12T23:53:45.372Z,17.50
2022-08-12T23:57:28.328Z,17.50
